createdAt,value
2023-05-13T00:01:50.702Z,9.40
2023-05-13T00:04:17.243Z,12.13
2023-05-13T00:06:43.855Z,11.05
2023-05-13T00:09:10.385Z,11.07
2023-05-13T00:11:36.887Z,10.57
2023-05-13T00:14:03.856Z,12.75
2023-05-13T00:16:30.588Z,11.95
2023-05-13T00:18:57.118Z,10.98
2023-05-13T00:21:23.783Z,11.50
2023-05-13T00:23:50.522Z,13.93
2023-05-13T00:26:17.098Z,12.10
2023-05-13T00:28:43.533Z,12.70
2023-05-13T00:31:10.324Z,11.73
2023-05-13T00:33:37.662Z,12.63
2023-05-13T00:36:05.080Z,11.95
2023-05-13T00:38:31.604Z,11.25
2023-05-13T00:40:58.336Z,14.27
2023-05-13T00:43:24.947Z,11.25
2023-05-13T00:45:51.526Z,11.63
2023-05-13T00:48:18.103Z,12.52
2023-05-13T00:50:44.920Z,10.40
2023-05-13T00:53:12.920Z,12.30
2023-05-13T00:55:46.169Z,12.30
2023-05-13T00:58:13.236Z,13.55
2023-05-13T01:00:57.799Z,13.77
2023-05-13T01:03:44.132Z,12.85
2023-05-13T01:07:07.900Z,13.10
2023-05-13T01:10:03.421Z,13.80
2023-05-13T01:12:34.815Z,12.88
2023-05-13T01:15:17.277Z,12.30
2023-05-13T01:18:05.482Z,11.48
2023-05-13T01:20:34.073Z,11.80
2023-05-13T01:23:00.684Z,13.80
2023-05-13T01:25:27.281Z,12.27
2023-05-13T01:27:54.085Z,12.98
2023-05-13T01:30:21.534Z,13.48
2023-05-13T01:32:49.008Z,14.70
2023-05-13T01:35:16.732Z,13.60
2023-05-13T01:37:43.890Z,13.82
2023-05-13T01:40:24.394Z,13.77
2023-05-13T01:42:57.623Z,14.27
2023-05-13T01:45:24.150Z,16.58
2023-05-13T01:47:50.757Z,14.85
2023-05-13T01:50:17.356Z,14.73
2023-05-13T01:52:44.038Z,15.07
2023-05-13T01:55:10.941Z,14.55
2023-05-13T01:57:37.528Z,15.82
2023-05-13T02:00:05.140Z,13.48
2023-05-13T02:02:31.923Z,15.32
2023-05-13T02:04:58.391Z,13.98
2023-05-13T02:07:24.836Z,14.98
2023-05-13T02:09:51.582Z,12.98
2023-05-13T02:12:18.100Z,16.70
2023-05-13T02:14:44.663Z,14.27
2023-05-13T02:17:11.455Z,16.13
2023-05-13T02:19:37.964Z,17.30
2023-05-13T02:22:04.711Z,15.15
2023-05-13T02:24:31.305Z,14.82
2023-05-13T02:26:57.829Z,14.30
2023-05-13T02:29:24.349Z,17.55
2023-05-13T02:31:50.938Z,15.27
2023-05-13T02:34:18.446Z,15.50
2023-05-13T02:36:44.922Z,14.82
2023-05-13T02:39:11.511Z,13.70
2023-05-13T02:41:38.072Z,16.00
2023-05-13T02:44:04.741Z,14.73
2023-05-13T02:46:31.790Z,19.48
2023-05-13T02:48:59.413Z,15.25
2023-05-13T02:51:26.014Z,16.50
2023-05-13T02:53:52.608Z,15.88
2023-05-13T02:56:19.463Z,16.95
2023-05-13T02:58:45.996Z,17.75
2023-05-13T03:01:12.883Z,17.83
2023-05-13T03:03:39.555Z,17.05
2023-05-13T03:06:06.587Z,15.63
2023-05-13T03:08:33.106Z,16.58
2023-05-13T03:10:59.572Z,17.15
2023-05-13T03:13:26.080Z,17.85
2023-05-13T03:15:52.597Z,19.77
2023-05-13T03:18:19.164Z,18.95
2023-05-13T03:20:46.443Z,16.75
2023-05-13T03:23:12.942Z,15.75
2023-05-13T03:25:39.521Z,17.02
2023-05-13T03:28:07.103Z,17.50
2023-05-13T03:30:33.593Z,18.38
2023-05-13T03:33:00.196Z,19.23
2023-05-13T03:35:26.692Z,17.40
2023-05-13T03:37:53.174Z,16.45
2023-05-13T03:40:19.783Z,17.58
2023-05-13T03:42:46.514Z,19.90
2023-05-13T03:45:12.977Z,19.73
2023-05-13T03:47:39.720Z,20.38
2023-05-13T03:50:06.932Z,17.92
2023-05-13T03:52:33.481Z,19.23
2023-05-13T03:54:59.976Z,19.45
2023-05-13T03:57:26.574Z,20.88
2023-05-13T03:59:53.053Z,21.92
2023-05-13T04:02:21.743Z,18.58
2023-05-13T04:04:48.331Z,21.85
2023-05-13T04:07:14.898Z,19.70
2023-05-13T04:09:41.413Z,18.83
2023-05-13T04:12:08.082Z,19.08
2023-05-13T04:14:35.043Z,19.67
2023-05-13T04:17:01.567Z,20.58
2023-05-13T04:19:28.092Z,19.88
2023-05-13T04:21:54.736Z,22.20
2023-05-13T04:24:21.264Z,19.92
2023-05-13T04:26:47.761Z,18.65
2023-05-13T04:29:14.850Z,19.95
2023-05-13T04:31:41.481Z,20.60
2023-05-13T04:34:08.054Z,21.83
2023-05-13T04:36:34.538Z,18.92
2023-05-13T04:39:00.991Z,22.05
2023-05-13T04:41:27.516Z,20.45
2023-05-13T04:43:54.087Z,18.92
2023-05-13T04:46:21.134Z,20.85
2023-05-13T04:48:48.402Z,21.15
2023-05-13T04:51:16.131Z,19.02
2023-05-13T04:53:43.080Z,21.08
2023-05-13T04:56:09.600Z,22.33
2023-05-13T04:58:36.184Z,20.27
2023-05-13T05:01:02.717Z,19.73
2023-05-13T05:03:29.387Z,20.05
2023-05-13T05:05:55.917Z,20.77
2023-05-13T05:08:22.367Z,18.70
2023-05-13T05:10:48.937Z,19.38
2023-05-13T05:13:15.489Z,20.45
2023-05-13T05:15:41.965Z,19.98
2023-05-13T05:18:08.759Z,19.80
2023-05-13T05:20:35.297Z,19.35
2023-05-13T05:23:02.407Z,19.08
2023-05-13T05:25:29.460Z,20.88
2023-05-13T05:27:56.865Z,19.80
2023-05-13T05:30:23.838Z,18.58
2023-05-13T05:32:50.683Z,20.77
2023-05-13T05:35:19.673Z,19.90
2023-05-13T05:37:46.232Z,22.88
2023-05-13T05:40:13.312Z,19.48
2023-05-13T05:42:40.931Z,20.52
2023-05-13T05:45:08.117Z,21.88
2023-05-13T05:47:34.647Z,19.60
2023-05-13T05:50:01.144Z,22.90
2023-05-13T05:52:27.780Z,22.25
2023-05-13T05:54:54.255Z,20.92
2023-05-13T05:57:20.994Z,23.42
2023-05-13T05:59:47.477Z,20.00
2023-05-13T06:02:14.018Z,21.73
2023-05-13T06:04:41.830Z,21.63
2023-05-13T06:07:08.828Z,22.58
2023-05-13T06:09:35.415Z,21.92
2023-05-13T06:12:01.955Z,20.55
2023-05-13T06:14:28.427Z,20.40
2023-05-13T06:16:55.845Z,20.77
2023-05-13T06:19:22.691Z,18.52
2023-05-13T06:21:49.267Z,19.52
2023-05-13T06:24:15.824Z,21.40
2023-05-13T06:26:42.344Z,19.90
2023-05-13T06:29:08.890Z,21.13
2023-05-13T06:31:35.462Z,19.33
2023-05-13T06:34:02.007Z,20.02
2023-05-13T06:36:28.496Z,20.95
2023-05-13T06:38:55.091Z,20.15
2023-05-13T06:41:21.561Z,18.83
2023-05-13T06:43:48.944Z,18.50
2023-05-13T06:46:15.476Z,19.60
2023-05-13T06:48:42.258Z,19.55
2023-05-13T06:51:08.832Z,18.27
2023-05-13T06:53:35.295Z,19.20
2023-05-13T06:56:01.773Z,20.08
2023-05-13T06:58:28.319Z,18.27
2023-05-13T07:00:54.807Z,18.50
2023-05-13T07:03:21.396Z,19.40
2023-05-13T07:05:47.991Z,19.30
2023-05-13T07:08:17.911Z,18.63
2023-05-13T07:10:45.155Z,17.70
2023-05-13T07:13:12.079Z,20.45
2023-05-13T07:15:38.568Z,17.40
2023-05-13T07:18:05.404Z,19.60
2023-05-13T07:20:31.983Z,18.13
2023-05-13T07:22:58.752Z,19.85
2023-05-13T07:25:25.396Z,17.65
2023-05-13T07:27:51.829Z,19.90
2023-05-13T07:30:18.395Z,21.77
2023-05-13T07:32:45.055Z,18.45
2023-05-13T07:35:11.702Z,19.00
2023-05-13T07:37:38.380Z,17.60
2023-05-13T07:40:08.839Z,18.45
2023-05-13T07:42:36.024Z,17.15
2023-05-13T07:45:02.695Z,16.45
2023-05-13T07:47:29.375Z,16.65
2023-05-13T07:49:55.961Z,15.52
2023-05-13T07:52:22.531Z,16.70
2023-05-13T07:54:49.524Z,16.88
2023-05-13T07:57:16.188Z,17.10
2023-05-13T07:59:44.658Z,16.40
2023-05-13T08:02:12.492Z,19.65
2023-05-13T08:04:39.122Z,16.52
2023-05-13T08:07:06.185Z,16.58
2023-05-13T08:09:32.768Z,17.15
2023-05-13T08:11:59.261Z,15.65
2023-05-13T08:14:25.821Z,17.00
2023-05-13T08:16:52.854Z,15.82
2023-05-13T08:19:19.809Z,17.33
2023-05-13T08:21:46.341Z,16.10
2023-05-13T08:24:12.985Z,14.70
2023-05-13T08:26:39.484Z,18.73
2023-05-13T08:29:06.039Z,15.63
2023-05-13T08:31:32.787Z,15.65
2023-05-13T08:33:59.398Z,15.82
2023-05-13T08:36:26.537Z,16.35
2023-05-13T08:38:53.368Z,15.45
2023-05-13T08:41:22.029Z,20.27
2023-05-13T08:43:51.647Z,13.80
2023-05-13T08:46:18.744Z,15.23
2023-05-13T08:48:46.035Z,14.73
2023-05-13T08:51:12.823Z,17.08
2023-05-13T08:53:41.104Z,14.68
2023-05-13T08:56:09.719Z,13.90
2023-05-13T08:58:36.389Z,15.32
2023-05-13T09:01:04.192Z,15.18
2023-05-13T09:03:31.585Z,15.00
2023-05-13T09:06:01.495Z,15.88
2023-05-13T09:08:28.012Z,14.57
2023-05-13T09:10:54.784Z,14.38
2023-05-13T09:13:21.803Z,13.35
2023-05-13T09:15:50.436Z,17.10
2023-05-13T09:18:18.775Z,14.05
2023-05-13T09:20:46.012Z,14.35
2023-05-13T09:23:13.170Z,15.10
2023-05-13T09:25:40.320Z,15.45
2023-05-13T09:28:08.346Z,14.38
2023-05-13T09:33:16.347Z,14.18
2023-05-13T09:35:53.509Z,14.80
2023-05-13T09:38:25.159Z,16.15
2023-05-13T09:40:56.990Z,14.15
2023-05-13T09:43:28.936Z,13.38
2023-05-13T09:45:57.209Z,15.93
2023-05-13T09:48:27.078Z,13.18
2023-05-13T09:50:55.895Z,12.50
2023-05-13T09:53:22.419Z,14.77
2023-05-13T09:55:55.142Z,13.88
2023-05-13T09:58:24.263Z,14.93
2023-05-13T10:00:51.574Z,15.07
2023-05-13T10:03:18.144Z,17.70
2023-05-13T10:05:45.173Z,14.38
2023-05-13T10:08:13.637Z,14.40
2023-05-13T10:10:41.869Z,16.40
2023-05-13T10:13:10.978Z,17.50
2023-05-13T10:15:50.149Z,15.45
2023-05-13T10:18:18.397Z,15.38
2023-05-13T10:20:45.780Z,13.98
2023-05-13T10:23:12.435Z,14.43
2023-05-13T10:25:39.022Z,13.73
2023-05-13T10:28:05.749Z,14.50
2023-05-13T10:30:35.807Z,17.33
2023-05-13T10:33:03.837Z,15.70
2023-05-13T10:35:38.637Z,16.17
2023-05-13T10:38:22.223Z,13.52
2023-05-13T10:40:48.731Z,16.25
2023-05-13T10:43:18.665Z,15.10
2023-05-13T10:45:50.225Z,18.73
2023-05-13T10:48:18.603Z,12.80
2023-05-13T10:50:52.123Z,15.77
2023-05-13T10:53:32.359Z,12.43
2023-05-13T10:56:00.151Z,13.27
2023-05-13T10:58:33.775Z,12.98
2023-05-13T11:01:19.901Z,15.85
2023-05-13T11:03:55.271Z,14.38
2023-05-13T11:06:36.897Z,11.90
2023-05-13T11:09:08.434Z,13.20
2023-05-13T11:11:36.774Z,12.73
2023-05-13T11:14:08.203Z,13.88
2023-05-13T11:16:36.289Z,12.20
2023-05-13T11:19:10.096Z,13.85
2023-05-13T11:21:39.806Z,14.65
2023-05-13T11:24:08.141Z,9.80
2023-05-13T11:26:59.028Z,10.63
2023-05-13T11:29:33.325Z,13.38
2023-05-13T11:32:01.800Z,11.43
2023-05-13T11:34:29.379Z,11.38
2023-05-13T11:37:05.183Z,10.50
2023-05-13T11:39:32.988Z,11.02
2023-05-13T11:42:01.793Z,11.82
2023-05-13T11:44:28.721Z,9.18
2023-05-13T11:46:57.868Z,9.48
2023-05-13T11:49:41.017Z,10.15
2023-05-13T11:52:16.319Z,9.93
2023-05-13T11:54:50.810Z,11.50
2023-05-13T11:57:17.394Z,9.65
2023-05-13T12:00:01.882Z,8.77
2023-05-13T12:02:37.512Z,11.52
2023-05-13T12:05:06.920Z,9.05
2023-05-13T12:07:34.437Z,11.00
2023-05-13T12:10:02.717Z,8.80
2023-05-13T12:12:31.334Z,9.90
2023-05-13T12:15:03.323Z,8.10
2023-05-13T12:17:31.295Z,9.23
2023-05-13T12:20:10.749Z,9.13
2023-05-13T12:22:44.305Z,8.60
2023-05-13T12:25:41.998Z,9.50
2023-05-13T12:28:09.380Z,6.80
2023-05-13T12:30:36.472Z,10.50
2023-05-13T12:33:05.036Z,8.45
2023-05-13T12:35:33.063Z,8.00
2023-05-13T12:38:04.067Z,8.57
2023-05-13T12:40:31.027Z,9.73
2023-05-13T12:43:01.864Z,9.50
2023-05-13T12:45:30.609Z,9.10
2023-05-13T12:47:57.768Z,9.43
2023-05-13T12:50:24.794Z,6.45
2023-05-13T12:52:52.536Z,8.23
2023-05-13T12:55:20.318Z,7.13
2023-05-13T12:57:59.068Z,6.97
2023-05-13T13:00:25.805Z,8.57
2023-05-13T13:02:53.867Z,7.07
2023-05-13T13:05:22.013Z,8.50
2023-05-13T13:07:49.160Z,8.70
2023-05-13T13:10:15.835Z,8.23
2023-05-13T13:12:43.132Z,9.57
2023-05-13T13:15:11.240Z,7.75
2023-05-13T13:17:38.144Z,8.85
2023-05-13T13:20:07.389Z,7.65
2023-05-13T13:22:37.005Z,8.85
2023-05-13T13:25:07.536Z,8.88
2023-05-13T13:27:35.122Z,8.23
2023-05-13T13:30:02.019Z,7.70
2023-05-13T13:32:28.820Z,8.65
2023-05-13T13:34:55.967Z,9.35
2023-05-13T13:37:22.489Z,7.47
2023-05-13T13:39:49.079Z,6.93
2023-05-13T13:42:15.722Z,8.23
2023-05-13T13:44:42.412Z,7.65
2023-05-13T13:47:09.737Z,8.63
2023-05-13T13:49:36.371Z,7.00
2023-05-13T13:52:02.919Z,8.07
2023-05-13T13:54:29.576Z,8.35
2023-05-13T13:56:56.261Z,6.15
2023-05-13T13:59:22.916Z,7.03
2023-05-13T14:01:49.581Z,6.95
2023-05-13T14:04:20.314Z,11.18
2023-05-13T14:06:47.154Z,9.10
2023-05-13T14:09:13.738Z,8.07
2023-05-13T14:11:40.492Z,8.85
2023-05-13T14:14:07.375Z,8.10
2023-05-13T14:16:34.354Z,7.75
2023-05-13T14:19:00.964Z,6.57
2023-05-13T14:21:27.581Z,6.20
2023-05-13T14:23:54.435Z,6.93
2023-05-13T14:26:21.985Z,8.27
2023-05-13T14:28:48.500Z,6.20
2023-05-13T14:31:15.114Z,5.82
2023-05-13T14:33:41.808Z,9.25
2023-05-13T14:36:11.098Z,7.25
2023-05-13T14:38:39.818Z,6.78
2023-05-13T14:41:06.394Z,7.40
2023-05-13T14:43:42.407Z,8.07
2023-05-13T14:46:09.173Z,6.20
2023-05-13T14:48:35.740Z,9.57
2023-05-13T14:51:02.339Z,7.72
2023-05-13T14:53:29.072Z,9.70
2023-05-13T14:55:55.839Z,6.75
2023-05-13T14:58:23.021Z,7.53
2023-05-13T15:00:49.653Z,7.15
2023-05-13T15:03:16.782Z,6.60
2023-05-13T15:05:44.850Z,6.20
2023-05-13T15:08:11.860Z,7.72
2023-05-13T15:10:38.457Z,6.32
2023-05-13T15:13:05.318Z,6.43
2023-05-13T15:15:33.680Z,5.45
2023-05-13T15:18:00.491Z,6.00
2023-05-13T15:20:28.453Z,7.05
2023-05-13T15:22:55.753Z,8.27
2023-05-13T15:25:22.427Z,6.00
2023-05-13T15:27:49.906Z,6.70
2023-05-13T15:30:16.559Z,6.72
2023-05-13T15:32:43.129Z,5.93
2023-05-13T15:35:12.881Z,6.18
2023-05-13T15:37:42.743Z,6.10
2023-05-13T15:40:09.856Z,7.18
2023-05-13T15:42:36.889Z,6.43
2023-05-13T15:45:03.924Z,6.63
2023-05-13T15:47:30.898Z,7.72
2023-05-13T15:49:57.576Z,6.70
2023-05-13T15:52:24.139Z,7.63
2023-05-13T15:54:50.821Z,7.97
2023-05-13T15:57:19.898Z,8.43
2023-05-13T15:59:46.685Z,7.55
2023-05-13T16:02:13.246Z,7.90
2023-05-13T16:04:40.152Z,5.57
2023-05-13T16:07:11.091Z,7.22
2023-05-13T16:09:38.820Z,7.25
2023-05-13T16:12:05.825Z,8.30
2023-05-13T16:14:32.674Z,7.90
2023-05-13T16:17:00.535Z,7.00
2023-05-13T16:19:27.399Z,6.93
2023-05-13T16:21:53.934Z,7.28
2023-05-13T16:24:20.649Z,8.82
2023-05-13T16:26:47.249Z,7.97
2023-05-13T16:29:14.024Z,10.52
2023-05-13T16:31:40.762Z,10.95
2023-05-13T16:34:07.334Z,11.50
2023-05-13T16:36:33.835Z,10.73
2023-05-13T16:39:00.565Z,10.98
2023-05-13T16:41:27.142Z,10.48
2023-05-13T16:43:53.746Z,12.00
2023-05-13T16:46:20.402Z,9.52
2023-05-13T16:48:46.959Z,10.50
2023-05-13T16:51:13.525Z,9.82
2023-05-13T16:53:40.084Z,11.98
2023-05-13T16:56:06.754Z,9.50
2023-05-13T16:58:33.221Z,10.57
2023-05-13T17:00:59.901Z,10.82
2023-05-13T17:03:26.723Z,10.55
2023-05-13T17:05:53.471Z,9.63
2023-05-13T17:08:21.374Z,8.00
2023-05-13T17:10:48.132Z,7.95
2023-05-13T17:13:14.696Z,10.30
2023-05-13T17:15:41.404Z,9.93
2023-05-13T17:18:08.344Z,11.55
2023-05-13T17:20:35.067Z,8.65
2023-05-13T17:23:01.606Z,11.20
2023-05-13T17:25:29.066Z,8.50
2023-05-13T17:27:55.677Z,11.95
2023-05-13T17:30:23.064Z,9.93
2023-05-13T17:32:49.850Z,10.25
2023-05-13T17:35:16.552Z,10.13
2023-05-13T17:37:43.179Z,11.35
2023-05-13T17:40:09.880Z,9.80
2023-05-13T17:42:36.375Z,9.32
2023-05-13T17:45:03.622Z,9.73
2023-05-13T17:47:31.135Z,12.68
2023-05-13T17:49:57.816Z,10.98
2023-05-13T17:52:24.358Z,9.55
2023-05-13T17:54:50.983Z,10.88
2023-05-13T17:57:17.483Z,10.80
2023-05-13T17:59:44.005Z,8.48
2023-05-13T18:02:10.742Z,10.68
2023-05-13T18:04:37.385Z,10.95
2023-05-13T18:07:03.930Z,12.15
2023-05-13T18:09:30.545Z,11.00
2023-05-13T18:11:57.004Z,10.88
2023-05-13T18:14:23.653Z,11.80
2023-05-13T18:16:50.562Z,12.68
2023-05-13T18:19:17.267Z,12.10
2023-05-13T18:21:45.570Z,11.23
2023-05-13T18:24:12.256Z,11.02
2023-05-13T18:26:38.814Z,9.90
2023-05-13T18:29:05.624Z,9.98
2023-05-13T18:31:34.916Z,10.32
2023-05-13T18:34:02.898Z,12.60
2023-05-13T18:38:55.876Z,9.82
2023-05-13T18:41:22.539Z,10.48
2023-05-13T18:43:49.016Z,9.50
2023-05-13T18:46:16.038Z,11.90
2023-05-13T18:48:43.612Z,15.02
2023-05-13T18:51:11.444Z,11.07
2023-05-13T18:53:38.072Z,10.35
2023-05-13T18:56:04.751Z,9.43
2023-05-13T18:58:31.654Z,11.18
2023-05-13T19:00:58.108Z,9.80
2023-05-13T19:03:26.761Z,10.95
2023-05-13T19:05:53.803Z,11.40
2023-05-13T19:08:20.477Z,9.88
2023-05-13T19:10:47.116Z,10.52
2023-05-13T19:13:14.832Z,10.32
2023-05-13T19:15:41.446Z,10.10
2023-05-13T19:18:08.029Z,9.95
2023-05-13T19:20:34.913Z,12.38
2023-05-13T19:23:01.509Z,10.50
2023-05-13T19:25:28.581Z,13.02
2023-05-13T19:27:55.696Z,10.75
2023-05-13T19:30:22.867Z,12.15
2023-05-13T19:32:49.819Z,11.18
2023-05-13T19:35:16.501Z,11.18
2023-05-13T19:37:43.598Z,8.98
2023-05-13T19:40:10.960Z,10.55
2023-05-13T19:42:37.993Z,11.27
2023-05-13T19:45:07.910Z,10.90
2023-05-13T19:47:34.828Z,11.45
2023-05-13T19:50:01.562Z,10.70
2023-05-13T19:52:28.296Z,11.10
2023-05-13T19:54:54.751Z,9.70
2023-05-13T19:57:21.885Z,11.30
2023-05-13T19:59:48.617Z,11.00
2023-05-13T20:02:15.207Z,11.02
2023-05-13T20:04:41.869Z,11.50
2023-05-13T20:07:09.458Z,13.35
2023-05-13T20:09:36.316Z,13.35
2023-05-13T20:12:03.799Z,13.10
2023-05-13T20:14:44.024Z,12.77
2023-05-13T20:17:11.430Z,13.55
2023-05-13T20:19:38.124Z,12.48
2023-05-13T20:22:04.819Z,14.25
2023-05-13T20:24:31.383Z,13.88
2023-05-13T20:26:58.100Z,15.70
2023-05-13T20:29:25.185Z,13.27
2023-05-13T20:31:51.692Z,12.80
2023-05-13T20:34:18.690Z,14.13
2023-05-13T20:36:45.215Z,15.43
2023-05-13T20:39:11.882Z,16.52
2023-05-13T20:41:38.508Z,14.85
2023-05-13T20:44:06.530Z,14.52
2023-05-13T20:46:33.204Z,16.30
2023-05-13T20:48:59.793Z,16.05
2023-05-13T20:51:26.446Z,14.07
2023-05-13T20:53:53.160Z,16.00
2023-05-13T20:56:20.229Z,16.15
2023-05-13T20:58:46.745Z,19.30
2023-05-13T21:01:13.453Z,16.38
2023-05-13T21:03:40.215Z,19.17
2023-05-13T21:06:06.824Z,17.88
2023-05-13T21:08:36.878Z,15.93
2023-05-13T21:11:04.072Z,18.60
2023-05-13T21:13:30.836Z,17.95
2023-05-13T21:15:57.532Z,17.30
2023-05-13T21:18:24.487Z,18.90
2023-05-13T21:20:51.370Z,21.25
2023-05-13T21:23:19.389Z,16.58
2023-05-13T21:25:47.076Z,16.33
2023-05-13T21:28:13.669Z,17.63
2023-05-13T21:30:40.149Z,18.63
2023-05-13T21:33:06.659Z,17.42
2023-05-13T21:35:33.233Z,17.95
2023-05-13T21:38:08.588Z,19.02
2023-05-13T21:40:38.816Z,21.45
2023-05-13T21:43:05.530Z,19.25
2023-05-13T21:45:32.158Z,17.67
2023-05-13T21:47:58.766Z,15.38
2023-05-13T21:50:25.345Z,18.88
2023-05-13T21:52:51.962Z,19.17
2023-05-13T21:55:18.792Z,17.95
2023-05-13T21:57:45.349Z,19.30
2023-05-13T22:00:15.167Z,20.30
2023-05-13T22:02:42.230Z,20.48
2023-05-13T22:05:09.266Z,21.92
2023-05-13T22:07:36.545Z,20.05
2023-05-13T22:10:03.203Z,22.90
2023-05-13T22:12:29.714Z,20.77
2023-05-13T22:14:56.213Z,22.55
2023-05-13T22:17:23.083Z,20.98
2023-05-13T22:19:49.937Z,20.65
2023-05-13T22:22:16.448Z,18.80
2023-05-13T22:24:43.114Z,21.42
2023-05-13T22:27:09.638Z,24.10
2023-05-13T22:29:36.268Z,22.35
2023-05-13T22:32:02.931Z,20.20
2023-05-13T22:34:29.492Z,22.17
2023-05-13T22:36:56.091Z,19.98
2023-05-13T22:39:22.627Z,20.17
2023-05-13T22:41:49.187Z,19.60
2023-05-13T22:44:16.210Z,20.13
2023-05-13T22:46:42.743Z,17.48
2023-05-13T22:49:10.391Z,18.85
2023-05-13T22:51:37.111Z,23.70
2023-05-13T22:54:03.768Z,19.45
2023-05-13T22:56:30.390Z,21.58
2023-05-13T22:58:56.928Z,21.63
2023-05-13T23:01:23.470Z,21.08
2023-05-13T23:03:50.093Z,21.42
2023-05-13T23:06:16.601Z,21.05
2023-05-13T23:08:43.107Z,24.75
2023-05-13T23:11:09.572Z,23.98
2023-05-13T23:13:36.192Z,24.13
2023-05-13T23:16:02.788Z,21.25
2023-05-13T23:18:29.626Z,24.50
2023-05-13T23:20:56.308Z,22.55
2023-05-13T23:23:23.149Z,22.05
2023-05-13T23:25:50.322Z,25.52
2023-05-13T23:28:17.160Z,24.02
2023-05-13T23:30:43.694Z,25.80
2023-05-13T23:33:10.312Z,23.60
2023-05-13T23:35:36.874Z,22.13
2023-05-13T23:38:03.481Z,25.17
2023-05-13T23:40:30.237Z,24.45
2023-05-13T23:42:56.737Z,23.48
2023-05-13T23:45:23.194Z,28.83
2023-05-13T23:47:50.554Z,26.27
2023-05-13T23:50:18.025Z,24.77
2023-05-13T23:52:44.714Z,23.02
2023-05-13T23:55:11.320Z,30.60
2023-05-13T23:57:38.395Z,23.83
